Wednesday, October 17, 2018, 8:32 AM GMT
Back to Local

CYQB, Quebec, Que

Location: , , Canada Lat: 46.8
Local Time: 8:32 AM GMT ( 8:32 GMT) Lon: -71.383
Time Zone: GMT Elev: 229 ft

Show me the last for .
Show Decoded

2018-10-17 08:21 METAR CYQB 170821Z 25003KT 15SM BKN028 OVC050 05/03 A2972 RMK SC7SC1 SLP067 =
2018-10-17 08:00 METAR CYQB 170800Z 24004KT 15SM -RA BKN029 OVC051 05/02 A2973 RMK SC5SC3 SLP071
                 =
2018-10-17 07:36 METAR CYQB 170736Z 24006KT 200V260 15SM -RA BKN049 OVC060 06/02 A2974 RMK SC6SC2
                 SLP075 =
2018-10-17 07:00 METAR CYQB 170700Z 24008KT 15SM BKN048 OVC074 06/02 A2974 RMK SC7AC1 SLP076 =
2018-10-17 06:00 METAR CYQB 170600Z 24007KT 15SM -RA OVC047 06/02 A2977 RMK SC8 SLP086 =
2018-10-17 05:45 METAR CYQB 170545Z 24009KT 15SM BKN047 OVC054 06/02 A2977 RMK SC6SC2 SLP086 =
2018-10-17 05:27 METAR CYQB 170527Z 24008KT 15SM -RA BKN043 OVC053 06/02 A2979 RMK SC5SC3 SLP091
                 =
2018-10-17 05:00 METAR CYQB 170500Z 24009KT 15SM OVC053 06/02 A2979 RMK SC8 SLP093 =
2018-10-17 04:00 METAR CYQB 170400Z 24007KT 15SM OVC055 05/02 A2981 RMK SC8 SLP099 =
2018-10-17 03:00 METAR CYQB 170300Z 25005KT 15SM BKN044 OVC064 04/02 A2982 RMK SC6SC2 SLP103 =
2018-10-17 02:43 METAR CYQB 170243Z 24005KT 15SM SCT045 BKN055 OVC072 04/01 A2983 RMK SC4SC3AC1
                 SLP105 =
2018-10-17 02:19 METAR CYQB 170219Z 25005KT 15SM -RA BKN052 OVC064 04/01 A2984 RMK SC5SC3 SLP108
                 =
2018-10-17 02:00 METAR CYQB 170200Z 25005KT 15SM FEW048 BKN064 OVC090 03/01 A2984 RMK SC1SC5AC2
                 SLP109 =
2018-10-17 01:00 METAR CYQB 170100Z 23005KT 15SM FEW050 FEW065 BKN079 03/M00 A2985 RMK SC1SC1AC5
                 SLP113 =
2018-10-17 00:00 METAR CYQB 170000Z 24004KT 15SM FEW047 BKN063 04/M01 A2986 RMK SC2SC5 SLP116 =
2018-10-16 23:00 METAR CYQB 162300Z 24004KT 15SM SCT050 BKN065 03/M01 A2988 RMK SC4SC3 SLP123 =
2018-10-16 22:00 METAR CYQB 162200Z 24007KT 30SM FEW040 SCT072 SCT130 03/M02 A2987 RMK SC1AC2AC1
                 SLP121 =
2018-10-16 21:00 METAR CYQB 162100Z 25013G19KT 230V300 30SM SCT041 BKN060 BKN250 05/M02 A2987 RMK
                 SC3SC2CI1 SLP119 =
2018-10-16 20:00 METAR CYQB 162000Z 26020G26KT 30SM BKN045 BKN250 06/M02 A2986 RMK SC7CI1 CI TR
                 SLP116 =
2018-10-16 19:00 METAR CYQB 161900Z 27016G24KT 30SM BKN047 BKN250 06/M02 A2987 RMK SC6CI1 SLP118
                 =
2018-10-16 18:00 METAR CYQB 161800Z 27013G22KT 30SM BKN045 06/M02 A2986 RMK SC7 SLP116 =
2018-10-16 17:00 METAR CYQB 161700Z 26018G26KT 30SM BKN035 BKN250 06/M01 A2988 RMK SC6CC1 CC TR
                 SLP123 =
2018-10-16 16:00 METAR CYQB 161600Z 25021G28KT 30SM BKN035 05/M02 A2986 RMK SC7 SLP114 =
2018-10-16 15:00 METAR CYQB 161500Z 27016G24KT 250V320 30SM BKN040 BKN240 05/M02 A2987 RMK SC5CI1
                 CI TR SLP117 =
2018-10-16 14:00 METAR CYQB 161400Z 26014G25KT 30SM BKN039 04/M02 A2986 RMK SC5 SLP114 =
2018-10-16 13:00 METAR CYQB 161300Z 27019G30KT 30SM BKN042 04/M03 A2984 RMK SC5 VIRGA NE SLP108 =
2018-10-16 12:32 METAR CYQB 161232Z 27014G24KT 15SM BKN035 03/M02 A2982 RMK SC7 VIRGA PRESRR
                 SLP102 =
2018-10-16 12:00 METAR CYQB 161200Z 28012G21KT 10SM -SHRA BKN032 03/M00 A2979 RMK SC7 CVCTV CLD
                 EMBD PRESRR SLP091 =
2018-10-16 11:42 METAR CYQB 161142Z 27016G26KT 15SM -SHRA BKN044 03/M00 A2977 RMK SC7 CVCTV CLD
                 EMBD PRESRR SLP085 =
2018-10-16 11:00 METAR CYQB 161100Z 26021G31KT 15SM OVC034 04/M01 A2971 RMK SC8 PRESRR SLP064 =
2018-10-16 10:23 METAR CYQB 161023Z 26021G35KT 10SM OVC032 04/M00 A2965 RMK SC8 SLP046 =
2018-10-16 10:00 METAR CYQB 161000Z 26025G35KT 10SM -RA OVC030 04/M00 A2963 RMK SC8 SLP039 =
2018-10-16 09:00 METAR CYQB 160900Z 26026G37KT 10SM -RA OVC030 03/01 A2957 RMK SC8 PRESRR SLP018
                 =

Support USWX by starting your Amazon purchase here.